Time;durP1;ratioP1;P1;durP2;ratioP2;P2;SDS_P1;SDS_P2;PMS_P1;PMS_P2;Temp;Humidity;BMP_temperature;BMP_pressure;BME280_temperature;BME280_humidity;BME280_pressure;Samples;Min_cycle;Max_cycle;Signal;HPM_P1;HPM_P2
2022/08/18 00:01:05;;;;;;;1.58;1.50;;;18.20;99.90;;;;;;5031440;28;20430;-63
2022/08/18 00:03:33;;;;;;;1.50;1.50;;;18.20;99.90;;;;;;5029122;28;20442;-63
2022/08/18 00:06:19;;;;;;;1.63;1.52;;;18.20;99.90;;;;;;5022523;28;20427;-64
2022/08/18 00:08:46;;;;;;;1.67;1.57;;;18.20;99.90;;;;;;5035064;28;20443;-64
2022/08/18 00:11:14;;;;;;;1.88;1.77;;;18.20;99.90;;;;;;5029090;28;20522;-63
2022/08/18 00:13:41;;;;;;;2.67;1.80;;;18.20;99.90;;;;;;5036966;28;20443;-63
2022/08/18 00:16:07;;;;;;;2.05;1.95;;;18.20;99.90;;;;;;5037781;28;20433;-64
2022/08/18 00:18:34;;;;;;;1.80;1.70;;;18.20;99.90;;;;;;5031295;28;20423;-63
2022/08/18 00:21:01;;;;;;;1.40;1.40;;;18.20;99.90;;;;;;5040996;28;20439;-64
2022/08/18 00:23:31;;;;;;;1.90;1.80;;;18.20;99.90;;;;;;5047500;28;20520;-64
2022/08/18 00:25:59;;;;;;;1.50;1.40;;;18.20;99.90;;;;;;5034041;28;20451;-63
2022/08/18 00:28:27;;;;;;;2.15;1.95;;;18.20;99.90;;;;;;5024517;28;21280;-64
2022/08/18 00:30:54;;;;;;;1.90;1.67;;;18.20;99.90;;;;;;5024131;28;20427;-63
2022/08/18 00:33:21;;;;;;;1.83;1.73;;;18.10;99.90;;;;;;5022909;28;20460;-63
2022/08/18 00:35:48;;;;;;;1.85;1.70;;;18.00;99.90;;;;;;5033538;28;20435;-65
2022/08/18 00:38:15;;;;;;;1.88;1.77;;;18.00;99.90;;;;;;5029659;28;20431;-63
2022/08/18 00:40:53;;;;;;;1.95;1.85;;;18.00;99.90;;;;;;5031728;28;20920;-63
2022/08/18 00:43:44;;;;;;;1.83;1.73;;;18.00;99.90;;;;;;5032645;28;20964;-63
2022/08/18 00:46:19;;;;;;;1.95;1.85;;;18.00;99.90;;;;;;5031591;28;20935;-63
2022/08/18 00:48:47;;;;;;;1.95;1.75;;;18.00;99.90;;;;;;5016178;28;20533;-63
2022/08/18 00:51:39;;;;;;;2.03;1.92;;;18.10;99.90;;;;;;5029376;28;20431;-63
2022/08/18 00:54:13;;;;;;;3.90;1.57;;;18.20;99.90;;;;;;5026435;28;20443;-63
2022/08/18 00:56:49;;;;;;;1.77;1.67;;;18.30;99.90;;;;;;5010190;28;20431;-63
2022/08/18 00:59:44;;;;;;;1.98;1.88;;;18.30;99.90;;;;;;5030814;28;20512;-63
2022/08/18 01:02:20;;;;;;;1.92;1.73;;;18.30;99.90;;;;;;5025705;28;20444;-63
2022/08/18 01:05:00;;;;;;;1.83;1.70;;;18.30;99.90;;;;;;5030427;28;20466;-63
2022/08/18 01:07:46;;;;;;;2.00;1.90;;;18.30;99.90;;;;;;5034948;28;20445;-63
2022/08/18 01:10:15;;;;;;;1.67;1.57;;;18.40;99.90;;;;;;5028754;28;20459;-63
2022/08/18 01:12:49;;;;;;;2.35;2.15;;;18.40;99.90;;;;;;5031914;28;20508;-63
2022/08/18 01:15:18;;;;;;;2.17;2.08;;;18.50;99.90;;;;;;5028016;28;20426;-63
2022/08/18 01:24:03;;;;;;;2.97;1.93;;;18.60;99.90;;;;;;5024000;28;21105;-63
2022/08/18 01:26:34;;;;;;;1.90;1.80;;;18.60;99.90;;;;;;5026847;28;20473;-63
2022/08/18 01:29:08;;;;;;;1.77;1.67;;;18.60;99.90;;;;;;5033369;28;20533;-64
2022/08/18 01:31:39;;;;;;;3.90;1.70;;;18.60;99.90;;;;;;5020744;28;20507;-64
2022/08/18 01:34:23;;;;;;;2.50;1.40;;;18.60;99.90;;;;;;5033226;28;20489;-64
2022/08/18 01:36:52;;;;;;;1.52;1.38;;;18.70;99.90;;;;;;5028462;28;20924;-64
2022/08/18 01:39:20;;;;;;;1.48;1.38;;;18.70;99.90;;;;;;5031527;28;20522;-64
2022/08/18 01:42:07;;;;;;;2.17;2.05;;;18.80;99.90;;;;;;5037933;28;21013;-63
2022/08/18 01:44:34;;;;;;;1.55;1.38;;;18.80;99.90;;;;;;5021517;28;20448;-63
2022/08/18 01:47:01;;;;;;;1.50;1.40;;;18.80;99.90;;;;;;5030794;28;20516;-64
2022/08/18 01:49:28;;;;;;;2.22;2.03;;;18.80;99.90;;;;;;5028926;28;20941;-63
2022/08/18 01:51:55;;;;;;;1.80;1.70;;;18.80;99.90;;;;;;5028405;28;20937;-63
2022/08/18 01:54:21;;;;;;;3.40;1.92;;;18.70;99.90;;;;;;5032298;28;20938;-63
2022/08/18 01:56:52;;;;;;;1.45;1.35;;;18.60;99.90;;;;;;5028627;28;20487;-63
2022/08/18 01:59:19;;;;;;;2.73;2.00;;;18.60;99.90;;;;;;5026608;28;20431;-64
2022/08/18 02:01:46;;;;;;;2.17;1.98;;;18.50;99.90;;;;;;5025897;28;20468;-63
2022/08/18 02:04:22;;;;;;;2.15;1.98;;;18.50;99.90;;;;;;5024155;28;20438;-63
2022/08/18 02:07:05;;;;;;;1.53;1.43;;;18.50;99.90;;;;;;5031096;28;20488;-63
2022/08/18 02:09:32;;;;;;;1.80;1.70;;;18.40;99.90;;;;;;5028695;28;20425;-63
2022/08/18 02:12:00;;;;;;;1.70;1.60;;;18.40;99.90;;;;;;5025721;28;20486;-64
2022/08/18 02:14:27;;;;;;;2.08;1.85;;;18.40;99.90;;;;;;5032223;28;20796;-63
2022/08/18 02:17:00;;;;;;;1.85;1.75;;;18.40;99.90;;;;;;5031187;28;20477;-63
2022/08/18 02:19:36;;;;;;;2.00;1.70;;;18.40;99.90;;;;;;5032830;28;20433;-63
2022/08/18 02:22:04;;;;;;;1.30;1.30;;;18.40;99.90;;;;;;5029211;28;20446;-63
2022/08/18 02:24:33;;;;;;;1.80;1.70;;;18.50;99.90;;;;;;5030678;28;20429;-63
2022/08/18 02:27:04;;;;;;;2.38;2.17;;;18.50;99.90;;;;;;5036902;28;20453;-63
2022/08/18 02:29:31;;;;;;;1.80;1.70;;;18.50;99.90;;;;;;5021925;28;20440;-63
2022/08/18 02:31:57;;;;;;;1.70;1.60;;;18.50;99.90;;;;;;5029199;28;20901;-63
2022/08/18 02:34:25;;;;;;;1.75;1.65;;;18.50;99.90;;;;;;5047840;28;20434;-63
2022/08/18 02:36:53;;;;;;;2.05;1.80;;;18.60;99.90;;;;;;5032694;28;20871;-64
2022/08/18 02:39:20;;;;;;;1.63;1.52;;;18.60;99.90;;;;;;5028738;28;20509;-63
2022/08/18 02:41:47;;;;;;;1.90;1.58;;;18.60;99.90;;;;;;5033726;28;20513;-63
2022/08/18 02:44:24;;;;;;;1.13;1.13;;;18.70;99.90;;;;;;5029204;28;20559;-63
2022/08/18 02:46:52;;;;;;;2.15;1.45;;;18.70;99.90;;;;;;5036905;28;20435;-63
2022/08/18 02:49:19;;;;;;;1.40;1.30;;;18.70;99.90;;;;;;5027859;28;20527;-63
2022/08/18 02:51:50;;;;;;;1.50;1.40;;;18.80;99.90;;;;;;5039979;28;20937;-63
2022/08/18 02:54:19;;;;;;;1.20;1.20;;;18.80;99.90;;;;;;5025428;28;20427;-63
2022/08/18 02:56:50;;;;;;;1.00;1.00;;;18.80;99.90;;;;;;5045150;28;20436;-63
2022/08/18 02:59:19;;;;;;;1.05;1.05;;;18.70;99.90;;;;;;5022380;28;20487;-63
2022/08/18 03:01:51;;;;;;;1.27;1.17;;;18.70;99.90;;;;;;5028323;28;20429;-63
2022/08/18 03:04:24;;;;;;;1.35;1.13;;;18.70;99.90;;;;;;5022386;28;20435;-63
2022/08/18 03:06:57;;;;;;;0.93;0.93;;;18.70;99.90;;;;;;5042249;28;20521;-64
2022/08/18 03:09:24;;;;;;;1.10;1.10;;;18.60;99.90;;;;;;5025626;28;20788;-64
2022/08/18 03:11:52;;;;;;;1.08;1.05;;;18.60;99.90;;;;;;5026677;28;20434;-63
2022/08/18 03:14:22;;;;;;;1.30;1.02;;;18.60;99.90;;;;;;5024233;28;20467;-64
2022/08/18 03:16:51;;;;;;;1.05;1.00;;;18.60;99.90;;;;;;5032370;28;20997;-63
2022/08/18 03:19:27;;;;;;;1.17;1.17;;;18.50;99.90;;;;;;5026225;28;20429;-63
2022/08/18 03:21:58;;;;;;;1.60;1.50;;;18.50;99.90;;;;;;5021932;28;20483;-61
2022/08/18 03:24:30;;;;;;;1.63;1.53;;;18.50;99.90;;;;;;5066383;28;20757;-62
2022/08/18 03:27:04;;;;;;;1.35;1.25;;;18.40;99.90;;;;;;5029216;28;20429;-63
2022/08/18 03:29:33;;;;;;;2.20;1.55;;;18.30;99.90;;;;;;5036048;28;20433;-63
2022/08/18 03:32:01;;;;;;;1.38;1.27;;;18.30;99.90;;;;;;5034007;28;20510;-63
2022/08/18 03:34:28;;;;;;;1.27;1.27;;;18.30;99.90;;;;;;5038624;28;20425;-62
2022/08/18 03:36:55;;;;;;;1.52;1.42;;;18.40;99.90;;;;;;5031434;28;20795;-62
2022/08/18 03:39:22;;;;;;;1.30;1.20;;;18.40;99.90;;;;;;5026742;28;20424;-62
2022/08/18 03:41:53;;;;;;;1.30;1.20;;;18.40;99.90;;;;;;5028240;28;20437;-62
2022/08/18 03:44:30;;;;;;;1.13;1.13;;;18.40;99.90;;;;;;5020713;28;21015;-62
2022/08/18 03:46:57;;;;;;;0.98;0.98;;;18.40;99.90;;;;;;5039083;28;20435;-62
2022/08/18 03:49:28;;;;;;;1.23;1.13;;;18.40;99.90;;;;;;5029924;28;20550;-62
2022/08/18 03:51:59;;;;;;;1.00;1.00;;;18.40;99.90;;;;;;5030314;28;20477;-62
2022/08/18 03:54:33;;;;;;;1.33;1.23;;;18.50;99.90;;;;;;5040086;28;21159;-63
2022/08/18 03:57:00;;;;;;;1.45;0.90;;;18.50;99.90;;;;;;5033484;28;20904;-63
2022/08/18 03:59:30;;;;;;;1.50;1.10;;;18.40;99.90;;;;;;5030178;28;20433;-63
2022/08/18 04:01:57;;;;;;;1.10;1.00;;;18.40;99.90;;;;;;5037903;28;20499;-63
2022/08/18 04:04:27;;;;;;;1.55;0.98;;;18.40;99.90;;;;;;5020593;28;20943;-62
2022/08/18 04:07:07;;;;;;;1.23;1.20;;;18.40;99.90;;;;;;5037554;28;20436;-62
2022/08/18 04:09:36;;;;;;;0.90;0.90;;;18.40;99.90;;;;;;5014171;28;20435;-62
2022/08/18 04:12:10;;;;;;;1.10;1.00;;;18.40;99.90;;;;;;5031429;28;20438;-62
2022/08/18 04:14:46;;;;;;;1.08;1.08;;;18.50;99.90;;;;;;5027237;28;20425;-62
2022/08/18 04:17:14;;;;;;;1.75;1.17;;;18.50;99.90;;;;;;5035713;28;20469;-62
2022/08/18 04:19:41;;;;;;;0.82;0.82;;;18.50;99.90;;;;;;5028259;28;20432;-63
2022/08/18 04:22:08;;;;;;;1.00;1.00;;;18.50;99.90;;;;;;5026366;28;20431;-63
2022/08/18 04:24:43;;;;;;;1.03;1.03;;;18.50;99.90;;;;;;5021422;28;20526;-63
2022/08/18 04:27:11;;;;;;;1.10;1.00;;;18.50;99.90;;;;;;5035413;28;20432;-63
2022/08/18 04:29:38;;;;;;;1.10;1.10;;;18.60;99.90;;;;;;5038216;28;20792;-62
2022/08/18 04:32:05;;;;;;;1.05;0.95;;;18.60;99.90;;;;;;5025184;28;20431;-62
2022/08/18 04:34:33;;;;;;;0.88;0.88;;;18.60;99.90;;;;;;5041191;28;20425;-62
2022/08/18 04:37:01;;;;;;;0.90;0.88;;;18.60;99.90;;;;;;5031539;28;20431;-63
2022/08/18 04:39:30;;;;;;;1.10;1.10;;;18.60;99.90;;;;;;5028618;28;20458;-63
2022/08/18 04:41:58;;;;;;;1.30;1.17;;;18.60;99.90;;;;;;5027711;28;20445;-63
2022/08/18 04:44:25;;;;;;;1.07;0.97;;;18.60;99.90;;;;;;5042638;28;20564;-62
2022/08/18 04:46:53;;;;;;;1.08;1.08;;;18.60;99.90;;;;;;5026917;28;20462;-63
2022/08/18 04:49:24;;;;;;;1.00;1.00;;;18.60;99.90;;;;;;5026414;28;20673;-62
2022/08/18 04:55:00;;;;;;;0.90;0.90;;;18.60;99.90;;;;;;5024092;28;20426;-63
2022/08/18 04:57:28;;;;;;;1.03;1.03;;;18.60;99.90;;;;;;5037128;28;20459;-63
2022/08/18 04:59:59;;;;;;;1.00;1.00;;;18.60;99.90;;;;;;5029409;28;20431;-63
2022/08/18 05:02:26;;;;;;;0.98;0.98;;;18.60;99.90;;;;;;5019798;28;20435;-63
2022/08/18 05:04:53;;;;;;;1.23;1.20;;;18.60;99.90;;;;;;5022356;28;20427;-63
2022/08/18 05:07:21;;;;;;;2.10;1.33;;;18.70;99.90;;;;;;5033319;28;20453;-63
2022/08/18 05:09:49;;;;;;;1.00;1.00;;;18.70;99.90;;;;;;5029393;28;20789;-63
2022/08/18 05:12:16;;;;;;;1.85;1.10;;;18.70;99.90;;;;;;5022279;28;20515;-63
2022/08/18 05:14:44;;;;;;;1.30;1.30;;;18.70;99.90;;;;;;5016730;28;20474;-63
2022/08/18 05:17:15;;;;;;;1.20;1.10;;;18.80;99.90;;;;;;5033509;28;21212;-63
2022/08/18 05:19:45;;;;;;;1.17;1.10;;;18.80;99.90;;;;;;5032577;28;20532;-63
2022/08/18 05:22:18;;;;;;;1.07;1.07;;;18.70;99.90;;;;;;5051747;28;20432;-63
2022/08/18 05:24:53;;;;;;;1.00;1.00;;;18.70;99.90;;;;;;5038629;28;20435;-63
2022/08/18 05:27:20;;;;;;;1.13;1.13;;;18.60;99.90;;;;;;5010995;28;20471;-63
2022/08/18 05:29:47;;;;;;;1.02;0.98;;;18.50;99.90;;;;;;5009977;28;20487;-63
2022/08/18 05:32:17;;;;;;;1.40;1.33;;;18.40;99.90;;;;;;5026198;28;20921;-63
2022/08/18 05:35:29;;;;;;;0.98;0.98;;;18.40;99.90;;;;;;5042361;28;20415;-63
2022/08/18 05:38:12;;;;;;;1.37;1.33;;;18.30;99.90;;;;;;4998687;28;20541;-62
2022/08/18 05:40:39;;;;;;;1.05;1.05;;;18.10;99.90;;;;;;5001678;28;20432;-62
2022/08/18 05:43:09;;;;;;;0.80;0.70;;;18.00;99.90;;;;;;4996067;28;20440;-63
2022/08/18 05:45:39;;;;;;;1.02;1.02;;;17.80;99.90;;;;;;4998492;28;20428;-63
2022/08/18 05:48:06;;;;;;;1.10;1.10;;;17.70;99.90;;;;;;4994881;28;20490;-63
2022/08/18 05:50:36;;;;;;;1.20;0.90;;;17.70;99.90;;;;;;4995724;28;20468;-63
2022/08/18 05:53:12;;;;;;;0.88;0.88;;;17.70;99.90;;;;;;5007569;28;20934;-63
2022/08/18 05:58:41;;;;;;;1.43;1.13;;;17.70;99.90;;;;;;5001949;28;20806;-63
2022/08/18 06:01:17;;;;;;;0.90;0.90;;;17.70;99.90;;;;;;4995892;28;20434;-63
2022/08/18 06:04:11;;;;;;;1.13;1.13;;;17.70;99.90;;;;;;4998741;28;20519;-63
2022/08/18 06:06:38;;;;;;;1.05;0.93;;;17.70;99.90;;;;;;4968317;28;20542;-63
2022/08/18 06:09:27;;;;;;;1.30;1.20;;;17.70;99.90;;;;;;4998255;28;20846;-63
2022/08/18 06:12:08;;;;;;;1.10;1.10;;;17.70;99.90;;;;;;4996178;28;20449;-63
2022/08/18 06:14:38;;;;;;;0.95;0.95;;;17.70;99.90;;;;;;5005906;28;21107;-63
2022/08/18 06:17:35;;;;;;;1.00;1.00;;;17.70;99.90;;;;;;5056341;28;20435;-63
2022/08/18 06:20:14;;;;;;;1.27;1.20;;;17.80;99.90;;;;;;5023456;28;20507;-63
2022/08/18 06:23:05;;;;;;;1.35;1.25;;;18.00;99.90;;;;;;5020210;28;20439;-63
2022/08/18 06:25:55;;;;;;;1.02;1.02;;;18.10;99.90;;;;;;5020184;28;20928;-63
2022/08/18 06:28:21;;;;;;;1.08;1.08;;;18.10;99.90;;;;;;5023667;28;20438;-63
2022/08/18 06:30:51;;;;;;;0.90;0.90;;;18.10;99.90;;;;;;5017777;28;20459;-62
2022/08/18 06:33:33;;;;;;;1.10;0.95;;;18.10;99.90;;;;;;5044938;28;20437;-62
2022/08/18 06:36:17;;;;;;;1.10;1.00;;;18.10;99.90;;;;;;5040170;28;20427;-63
2022/08/18 06:39:05;;;;;;;1.30;1.10;;;18.20;99.90;;;;;;5022681;28;20441;-62
2022/08/18 06:41:41;;;;;;;0.95;0.95;;;18.20;99.90;;;;;;5023497;28;20431;-65
2022/08/18 06:44:30;;;;;;;1.27;1.17;;;18.20;99.90;;;;;;5029042;28;20922;-64
2022/08/18 06:47:08;;;;;;;1.13;1.13;;;18.30;99.90;;;;;;5021854;28;20440;-63
2022/08/18 06:50:07;;;;;;;1.23;1.10;;;18.40;99.90;;;;;;5019984;28;20541;-63
2022/08/18 06:52:50;;;;;;;1.30;1.20;;;18.50;99.90;;;;;;5020406;28;20434;-63
2022/08/18 06:55:29;;;;;;;1.20;1.10;;;18.60;99.90;;;;;;5022072;28;20434;-63
2022/08/18 06:58:05;;;;;;;1.40;1.30;;;18.80;99.90;;;;;;5023013;28;20484;-63
2022/08/18 07:00:35;;;;;;;1.13;1.13;;;18.80;99.90;;;;;;5025820;28;20425;-63
2022/08/18 07:03:12;;;;;;;2.00;1.40;;;19.00;99.90;;;;;;5021509;28;20446;-63
2022/08/18 07:05:55;;;;;;;1.35;1.25;;;19.10;99.90;;;;;;5022985;28;20437;-63
2022/08/18 07:08:35;;;;;;;1.10;1.10;;;19.10;99.90;;;;;;5041438;28;20440;-62
2022/08/18 07:11:30;;;;;;;1.40;1.30;;;19.20;99.90;;;;;;5031077;28;20434;-62
2022/08/18 07:14:21;;;;;;;0.85;0.85;;;19.20;99.90;;;;;;5015659;28;20569;-63
2022/08/18 07:17:06;;;;;;;1.42;1.33;;;19.20;99.90;;;;;;5021348;28;20526;-62
2022/08/18 07:19:33;;;;;;;1.30;1.20;;;19.10;99.90;;;;;;5025015;28;20699;-62
2022/08/18 07:22:12;;;;;;;1.10;1.10;;;19.10;99.90;;;;;;5021561;28;20460;-62
2022/08/18 07:24:47;;;;;;;1.30;1.20;;;19.20;99.90;;;;;;5026027;28;20520;-61
2022/08/18 07:27:17;;;;;;;1.20;1.10;;;19.30;99.90;;;;;;5025728;28;20462;-61
2022/08/18 07:30:32;;;;;;;1.20;1.10;;;19.30;99.90;;;;;;5026720;28;20514;-62
2022/08/18 07:33:20;;;;;;;1.05;1.05;;;19.40;99.90;;;;;;5025775;28;20431;-62
2022/08/18 07:35:58;;;;;;;1.58;1.48;;;19.40;99.90;;;;;;5033452;28;20457;-62
2022/08/18 07:38:32;;;;;;;2.53;1.60;;;19.50;99.90;;;;;;5038132;28;20533;-62
2022/08/18 07:41:19;;;;;;;1.30;1.23;;;19.50;99.90;;;;;;5039657;28;20513;-62
2022/08/18 07:43:51;;;;;;;1.00;1.00;;;19.60;99.90;;;;;;5035681;28;21000;-62
2022/08/18 07:46:21;;;;;;;1.35;1.25;;;19.60;99.90;;;;;;5042030;28;20433;-62
2022/08/18 07:48:48;;;;;;;2.10;1.17;;;19.60;99.90;;;;;;5037826;28;21072;-62
2022/08/18 07:51:24;;;;;;;1.53;1.43;;;19.60;99.90;;;;;;5046024;28;20858;-62
2022/08/18 07:54:32;;;;;;;1.33;1.23;;;19.70;99.90;;;;;;5033912;28;20509;-62
2022/08/18 07:57:43;;;;;;;1.42;1.33;;;19.80;99.90;;;;;;5040251;28;20425;-62
2022/08/18 08:00:13;;;;;;;1.17;1.17;;;20.00;99.90;;;;;;5039130;28;20521;-62
2022/08/18 08:03:06;;;;;;;1.30;1.30;;;20.10;99.90;;;;;;5029831;28;20433;-62
2022/08/18 08:05:33;;;;;;;1.15;1.15;;;20.00;99.90;;;;;;5028612;28;20429;-62
2022/08/18 08:08:43;;;;;;;1.38;1.30;;;20.00;99.90;;;;;;5038199;28;20433;-62
2022/08/18 08:11:39;;;;;;;1.23;1.10;;;20.10;99.90;;;;;;5021005;28;20431;-62
2022/08/18 08:14:24;;;;;;;2.80;1.40;;;20.20;99.90;;;;;;5020305;28;20439;-62
2022/08/18 08:17:31;;;;;;;1.40;1.30;;;20.20;99.90;;;;;;5016299;28;20502;-62
2022/08/18 08:20:24;;;;;;;1.13;1.13;;;20.10;99.90;;;;;;5016531;28;20431;-63
2022/08/18 08:23:23;;;;;;;1.38;1.27;;;20.10;99.90;;;;;;5027708;28;20439;-63
2022/08/18 08:25:55;;;;;;;1.50;1.40;;;20.00;99.90;;;;;;5025826;28;20612;-63
2022/08/18 08:28:48;;;;;;;0.80;0.80;;;20.10;99.90;;;;;;5031303;28;20439;-62
2022/08/18 08:32:01;;;;;;;1.60;1.50;;;20.20;99.90;;;;;;5029267;28;20450;-62
2022/08/18 08:34:55;;;;;;;1.57;1.47;;;20.50;99.90;;;;;;5019377;28;20624;-63
2022/08/18 08:37:50;;;;;;;1.25;1.25;;;20.80;99.90;;;;;;5021740;28;20518;-62
2022/08/18 08:40:42;;;;;;;1.00;1.00;;;21.20;99.90;;;;;;5021677;28;20442;-63
2022/08/18 08:43:17;;;;;;;1.42;1.38;;;21.70;99.90;;;;;;5018472;28;20426;-62
2022/08/18 08:46:10;;;;;;;1.80;1.70;;;22.20;99.90;;;;;;5015079;28;20513;-63
2022/08/18 08:48:45;;;;;;;1.77;1.50;;;22.30;99.90;;;;;;5016002;28;20435;-63
2022/08/18 08:51:45;;;;;;;1.60;1.50;;;22.20;99.90;;;;;;5013177;28;20528;-62
2022/08/18 08:54:22;;;;;;;1.60;1.50;;;22.30;99.90;;;;;;5002197;28;20431;-62
2022/08/18 08:56:52;;;;;;;1.65;1.50;;;22.60;99.90;;;;;;5025323;28;21026;-62
2022/08/18 08:59:21;;;;;;;1.55;1.45;;;23.10;99.90;;;;;;5024022;28;20469;-62
2022/08/18 09:02:09;;;;;;;1.90;1.80;;;23.40;99.90;;;;;;5024125;28;20597;-62
2022/08/18 09:05:14;;;;;;;2.28;2.08;;;23.80;99.90;;;;;;5021307;28;20545;-63
2022/08/18 09:08:15;;;;;;;1.80;1.70;;;24.20;99.90;;;;;;5026943;28;20435;-63
2022/08/18 09:11:25;;;;;;;2.37;2.17;;;24.60;99.90;;;;;;5025925;28;20439;-62
2022/08/18 09:13:55;;;;;;;2.15;2.05;;;24.80;99.90;;;;;;5025546;28;20433;-63
2022/08/18 09:16:25;;;;;;;1.83;1.70;;;24.80;99.90;;;;;;5033010;28;20747;-62
2022/08/18 09:19:31;;;;;;;2.33;1.88;;;25.00;99.90;;;;;;5029287;28;20432;-62
2022/08/18 09:22:29;;;;;;;2.70;1.98;;;24.90;99.90;;;;;;5008577;28;20946;-63
2022/08/18 09:24:56;;;;;;;2.20;2.10;;;24.90;99.90;;;;;;5050271;28;20437;-63
2022/08/18 09:27:41;;;;;;;1.80;1.70;;;24.90;99.90;;;;;;5032212;28;20801;-63
2022/08/18 09:31:02;;;;;;;2.33;2.13;;;25.10;99.90;;;;;;5047267;28;20457;-63
2022/08/18 09:33:39;;;;;;;1.80;1.70;;;25.20;99.90;;;;;;5037847;28;20434;-63
2022/08/18 09:36:24;;;;;;;2.15;2.05;;;25.30;99.90;;;;;;5046998;28;20428;-63
2022/08/18 09:42:26;;;;;;;2.20;2.10;;;24.80;99.90;;;;;;5029344;28;20430;-63
2022/08/18 09:45:00;;;;;;;2.38;2.17;;;24.30;99.90;;;;;;5027529;28;20418;-63
2022/08/18 09:47:27;;;;;;;2.17;2.00;;;24.30;99.90;;;;;;5040728;28;20435;-63
2022/08/18 09:50:16;;;;;;;2.47;2.28;;;24.30;99.90;;;;;;5039898;28;20492;-63
2022/08/18 09:52:57;;;;;;;2.10;2.00;;;24.50;99.90;;;;;;5030591;28;20498;-62
2022/08/18 09:55:30;;;;;;;2.55;2.33;;;24.60;99.90;;;;;;5035720;28;20434;-63
2022/08/18 09:58:14;;;;;;;3.45;2.20;;;24.50;99.90;;;;;;5033356;28;20436;-63
2022/08/18 10:00:42;;;;;;;2.67;2.45;;;24.20;99.90;;;;;;5025607;28;20431;-64
2022/08/18 10:03:23;;;;;;;2.10;2.00;;;24.00;99.90;;;;;;5053257;28;20895;-63
2022/08/18 10:06:02;;;;;;;2.28;2.13;;;24.00;99.90;;;;;;5039538;28;20437;-63
2022/08/18 10:09:00;;;;;;;2.20;1.92;;;23.80;99.90;;;;;;5022264;28;20438;-62
2022/08/18 10:12:09;;;;;;;1.73;1.63;;;23.60;99.90;;;;;;5029393;28;20431;-63
2022/08/18 10:14:57;;;;;;;3.08;2.42;;;23.60;99.90;;;;;;5027295;28;20898;-62
2022/08/18 10:17:49;;;;;;;2.17;2.03;;;23.50;99.90;;;;;;5040465;28;20433;-63
2022/08/18 10:20:37;;;;;;;2.80;2.50;;;23.40;99.90;;;;;;5025364;28;20980;-63
2022/08/18 10:23:08;;;;;;;2.47;2.28;;;23.30;99.90;;;;;;5021307;28;20438;-63
2022/08/18 10:25:40;;;;;;;2.40;2.27;;;23.30;99.90;;;;;;5019660;28;20463;-63
2022/08/18 10:28:29;;;;;;;2.20;2.05;;;23.10;99.90;;;;;;5037260;28;20951;-62
2022/08/18 10:31:06;;;;;;;2.33;2.15;;;23.00;99.90;;;;;;5035643;28;20891;-63
2022/08/18 10:33:54;;;;;;;2.72;2.45;;;23.00;99.90;;;;;;5013332;28;20531;-63
2022/08/18 10:36:39;;;;;;;2.83;2.13;;;23.00;99.90;;;;;;5023917;28;20427;-63
2022/08/18 10:39:12;;;;;;;2.47;2.28;;;23.10;99.90;;;;;;5024270;28;20483;-64
2022/08/18 10:41:53;;;;;;;2.38;2.17;;;23.20;99.90;;;;;;5022688;28;20429;-63
2022/08/18 10:44:26;;;;;;;3.42;2.40;;;23.30;99.90;;;;;;5017349;28;20918;-63
2022/08/18 10:46:58;;;;;;;2.67;2.30;;;23.40;99.90;;;;;;5018867;28;20460;-63
2022/08/18 10:49:30;;;;;;;2.65;2.45;;;23.60;99.90;;;;;;5025689;28;20522;-63
2022/08/18 10:52:33;;;;;;;3.08;2.88;;;23.90;99.90;;;;;;5028355;28;20518;-63
2022/08/18 10:55:35;;;;;;;3.05;2.63;;;24.20;99.90;;;;;;5026858;28;20453;-63
2022/08/18 10:58:24;;;;;;;3.13;2.83;;;24.50;99.90;;;;;;5028721;28;20431;-63
2022/08/18 11:00:59;;;;;;;4.40;3.05;;;25.40;99.90;;;;;;5026379;28;20438;-63
2022/08/18 11:03:32;;;;;;;3.10;2.80;;;26.30;99.90;;;;;;5029015;28;20463;-62
2022/08/18 11:06:23;;;;;;;4.20;3.33;;;26.40;99.90;;;;;;5023252;28;20430;-62
2022/08/18 11:08:57;;;;;;;3.65;3.35;;;25.80;99.90;;;;;;5029133;28;20437;-63
2022/08/18 11:11:32;;;;;;;3.50;3.20;;;26.20;99.90;;;;;;5018360;28;20453;-63
2022/08/18 11:14:33;;;;;;;3.10;2.90;;;26.20;99.90;;;;;;5023430;28;20426;-62
2022/08/18 11:17:15;;;;;;;3.40;3.10;;;26.10;99.90;;;;;;5022816;28;20452;-62
2022/08/18 11:19:45;;;;;;;4.22;3.05;;;26.40;99.90;;;;;;5015799;28;20944;-63
2022/08/18 11:22:31;;;;;;;3.13;2.70;;;25.90;99.90;;;;;;5019340;28;20876;-63
2022/08/18 11:25:02;;;;;;;4.47;3.10;;;26.40;99.90;;;;;;5024886;28;20446;-62
2022/08/18 11:27:35;;;;;;;2.90;2.70;;;26.60;99.90;;;;;;5020486;28;20440;-63
2022/08/18 11:30:08;;;;;;;3.47;2.50;;;27.40;99.90;;;;;;5022248;28;20443;-63
2022/08/18 11:32:40;;;;;;;4.57;3.25;;;28.80;99.90;;;;;;5023504;28;20440;-63
2022/08/18 11:35:31;;;;;;;3.80;3.42;;;29.30;99.90;;;;;;5015050;28;20445;-63
2022/08/18 11:38:04;;;;;;;3.80;3.50;;;29.80;99.90;;;;;;5022458;28;20790;-63
2022/08/18 11:40:38;;;;;;;3.72;3.35;;;30.10;99.90;;;;;;5021770;28;20432;-63
2022/08/18 11:43:27;;;;;;;4.20;3.80;;;29.80;99.90;;;;;;5013765;28;20433;-63
2022/08/18 11:46:08;;;;;;;4.13;3.63;;;29.50;99.90;;;;;;5018222;28;20436;-62
2022/08/18 11:48:44;;;;;;;4.80;3.87;;;29.60;99.90;;;;;;5026146;28;20855;-63
2022/08/18 11:51:27;;;;;;;3.28;3.08;;;29.60;99.90;;;;;;5024598;28;20431;-64
2022/08/18 11:54:11;;;;;;;4.65;4.05;;;30.10;99.90;;;;;;5025433;28;20504;-64
2022/08/18 11:56:38;;;;;;;3.40;2.92;;;29.60;99.90;;;;;;5020563;28;20425;-62
2022/08/18 11:59:24;;;;;;;2.42;2.33;;;29.70;99.90;;;;;;5029857;28;20964;-63
2022/08/18 12:02:17;;;;;;;2.42;2.33;;;29.80;99.90;;;;;;5017950;28;20429;-63
2022/08/18 12:04:51;;;;;;;3.13;2.70;;;29.80;99.90;;;;;;5026806;28;20924;-63
2022/08/18 12:07:32;;;;;;;2.33;2.17;;;29.60;99.90;;;;;;5024899;28;20517;-63
2022/08/18 12:10:26;;;;;;;2.13;2.03;;;30.00;99.90;;;;;;5025416;28;20518;-63
2022/08/18 12:12:58;;;;;;;2.90;2.70;;;30.10;99.90;;;;;;5015968;28;20449;-63
2022/08/18 12:15:32;;;;;;;2.28;2.17;;;29.60;99.90;;;;;;5032199;28;20793;-63
2022/08/18 12:18:10;;;;;;;3.28;2.70;;;29.40;99.90;;;;;;5030575;28;20427;-63
2022/08/18 12:20:53;;;;;;;2.28;2.10;;;29.30;99.90;;;;;;5036297;28;20494;-63
2022/08/18 12:23:20;;;;;;;3.05;2.78;;;29.40;99.90;;;;;;5022288;28;20920;-63
2022/08/18 12:25:47;;;;;;;2.33;2.22;;;29.00;99.90;;;;;;5037517;28;20412;-63
2022/08/18 12:28:20;;;;;;;2.47;2.28;;;29.10;99.90;;;;;;5032593;28;20975;-63
2022/08/18 12:30:48;;;;;;;2.60;2.40;;;28.80;99.90;;;;;;5019987;28;20431;-63
2022/08/18 12:33:23;;;;;;;2.70;2.60;;;28.50;99.90;;;;;;5024484;28;20458;-63
2022/08/18 12:35:53;;;;;;;2.63;2.42;;;28.40;99.90;;;;;;5024510;28;20426;-63
2022/08/18 12:38:21;;;;;;;2.38;2.17;;;28.90;99.90;;;;;;5037726;28;20926;-63
2022/08/18 12:40:49;;;;;;;4.20;2.50;;;29.40;99.90;;;;;;5026728;28;20520;-63
2022/08/18 12:43:23;;;;;;;1.98;1.88;;;30.10;99.90;;;;;;5037171;28;20486;-63
2022/08/18 12:45:58;;;;;;;2.30;2.20;;;30.60;99.90;;;;;;5025380;28;20438;-63
2022/08/18 12:48:29;;;;;;;2.03;1.92;;;30.30;99.90;;;;;;5030181;28;20435;-63
2022/08/18 12:50:56;;;;;;;2.08;1.98;;;29.90;99.90;;;;;;5023950;28;20514;-63
2022/08/18 12:53:27;;;;;;;2.27;2.07;;;30.10;99.90;;;;;;5022032;28;20933;-63
2022/08/18 12:56:24;;;;;;;1.90;1.80;;;29.90;99.90;;;;;;5023320;28;20423;-64
2022/08/18 12:58:54;;;;;;;2.22;2.03;;;30.50;99.90;;;;;;5024805;28;20510;-63
2022/08/18 13:01:26;;;;;;;2.40;2.20;;;31.10;99.90;;;;;;5020612;28;20432;-63
2022/08/18 13:03:54;;;;;;;2.10;2.00;;;31.20;99.90;;;;;;5012438;28;20449;-62
2022/08/18 13:06:48;;;;;;;2.30;2.20;;;31.30;99.90;;;;;;5024561;28;20435;-64
2022/08/18 13:09:29;;;;;;;2.00;1.90;;;30.90;99.90;;;;;;5025612;28;20439;-63
2022/08/18 13:12:24;;;;;;;2.13;2.03;;;31.00;99.90;;;;;;5025489;28;20419;-64
2022/08/18 13:14:53;;;;;;;1.80;1.80;;;31.20;99.90;;;;;;5030995;28;20927;-64
2022/08/18 13:17:20;;;;;;;1.45;1.40;;;31.20;99.90;;;;;;5023614;28;20432;-63
2022/08/18 13:20:01;;;;;;;1.48;1.48;;;31.30;99.90;;;;;;5030111;28;20426;-63
2022/08/18 13:22:30;;;;;;;1.80;1.70;;;31.60;99.70;;;;;;5035213;28;20509;-63
2022/08/18 13:25:03;;;;;;;1.80;1.70;;;31.90;98.50;;;;;;5026410;28;20518;-62
2022/08/18 13:27:31;;;;;;;1.52;1.50;;;32.30;98.80;;;;;;5032400;28;20438;-63
2022/08/18 13:30:05;;;;;;;1.40;1.40;;;31.70;97.10;;;;;;5027610;28;20440;-63
2022/08/18 13:32:51;;;;;;;1.70;1.60;;;31.90;98.30;;;;;;5020677;28;20417;-63
2022/08/18 13:35:29;;;;;;;2.10;2.00;;;32.20;98.20;;;;;;5033705;28;20463;-63
2022/08/18 13:38:14;;;;;;;1.58;1.48;;;31.80;98.10;;;;;;5029273;28;20427;-62
2022/08/18 13:41:07;;;;;;;1.58;1.58;;;31.40;98.80;;;;;;5033995;28;20936;-63
2022/08/18 13:43:43;;;;;;;1.92;1.73;;;31.40;98.50;;;;;;5018650;28;20429;-63
2022/08/18 13:46:17;;;;;;;1.65;1.55;;;31.40;98.80;;;;;;5022830;28;20806;-63
2022/08/18 13:48:48;;;;;;;1.80;1.70;;;31.20;98.90;;;;;;5026503;28;20488;-63
2022/08/18 13:51:22;;;;;;;1.40;1.35;;;31.10;98.40;;;;;;5023623;28;20436;-63
2022/08/18 13:53:51;;;;;;;1.42;1.33;;;30.80;98.50;;;;;;5028391;28;20922;-62